Auburn University, Alabama
Current Conditions -  °F | °C
As of 6:55 PM on Thursday 30 Oct 2014 (Local Time) from KAUO Reporting Station
Clear Clear  
Wind Chill: 55°   Ceiling: Unl
Heat Index: 55°   Visibility: 10mi
Dew Point: 37°   Wind: 5mph
Humidity: 51%   Direction: 330°NNW
Pressure: 30.03"   Gusts: NA
Location:  32.61°N, 85.48°W
Report Text: KAUO 302355Z AUTO 33004KT 10SM CLR 13/03 A3003 RMK AO1 10190 20130 401900070 52003
Loading
Personal Weather Stations






























Interactive Weather Map
Tropical Storm Tracking
New forecast layout! Learn more

10-Day Weather Forecast

Advertisements
Track Severe Weather on mobile